Terminal Aerodrome Forecast
Issued by NWS Goodland, KS

Home | Current Version | Previous Version | Text Only | Print | Product List | Glossary On
Versions: 1 2 3 4 5 6 7 8 9 10 11 12 13 14 15
000
FTUS43 KGLD 300104 AAA
TAFGLD
TAF AMD
KGLD 300104Z 3001/3024 VRB05KT P6SM VCTS SCT040 SCT070 BKN090CB
      TEMPO 3001/3002 30030G45KT 6SM -TSRA BLDU BKN070CB
     FM300300 VRB05KT P6SM BKN060=

USA.gov is the U.S. government's official web portal to all federal, state and local government web resources and services.